Time;durP1;ratioP1;P1;durP2;ratioP2;P2;SDS_P1;SDS_P2;PMS_P1;PMS_P2;Temp;Humidity;BMP_temperature;BMP_pressure;BME280_temperature;BME280_humidity;BME280_pressure;Samples;Min_cycle;Max_cycle;Signal;HPM_P1;HPM_P2
2020/05/15 00:04:16;;;;;;;23.4;21.1;;;;;;;;;;;;;
2020/05/15 00:21:25;;;;;;;19.6;17.6;;;;;;;;;;;;;
2020/05/15 00:23:55;;;;;;;17.9;16.2;;;;;;;;;;;;;
2020/05/15 00:26:18;;;;;;;17.1;15.5;;;;;;;;;;;;;
2020/05/15 00:28:43;;;;;;;17.3;15.7;;;;;;;;;;;;;
2020/05/15 00:31:17;;;;;;;18.3;16.5;;;;;;;;;;;;;
2020/05/15 00:33:42;;;;;;;17.8;16.1;;;;;;;;;;;;;
2020/05/15 00:36:07;;;;;;;17.8;16;;;;;;;;;;;;;
2020/05/15 00:38:32;;;;;;;17.5;15.8;;;;;;;;;;;;;
2020/05/15 00:41:00;;;;;;;17;15.4;;;;;;;;;;;;;
2020/05/15 00:43:25;;;;;;;16.8;15.2;;;;;;;;;;;;;
2020/05/15 00:45:50;;;;;;;17.1;15.3;;;;;;;;;;;;;
2020/05/15 00:48:15;;;;;;;16.4;14.9;;;;;;;;;;;;;
2020/05/15 00:50:40;;;;;;;16.4;14.8;;;;;;;;;;;;;
2020/05/15 00:53:06;;;;;;;16.2;14.7;;;;;;;;;;;;;
2020/05/15 00:55:31;;;;;;;16.2;14.8;;;;;;;;;;;;;
2020/05/15 00:57:56;;;;;;;16.3;14.8;;;;;;;;;;;;;
2020/05/15 01:00:23;;;;;;;16.5;14.9;;;;;;;;;;;;;
2020/05/15 01:02:47;;;;;;;16.1;14.4;;;;;;;;;;;;;
2020/05/15 01:05:13;;;;;;;16;14.6;;;;;;;;;;;;;
2020/05/15 01:07:38;;;;;;;16;14.5;;;;;;;;;;;;;
2020/05/15 01:10:03;;;;;;;16;14.5;;;;;;;;;;;;;
2020/05/15 01:12:28;;;;;;;16.2;14.7;;;;;;;;;;;;;
2020/05/15 01:14:55;;;;;;;16;14.4;;;;;;;;;;;;;
2020/05/15 01:17:20;;;;;;;16;14.4;;;;;;;;;;;;;
2020/05/15 01:19:45;;;;;;;15.6;14.2;;;;;;;;;;;;;
2020/05/15 01:22:11;;;;;;;14.9;13.6;;;;;;;;;;;;;
2020/05/15 01:24:36;;;;;;;14.3;12.9;;;;;;;;;;;;;
2020/05/15 01:27:09;;;;;;;14.1;12.8;;;;;;;;;;;;;
2020/05/15 01:29:34;;;;;;;14.2;12.8;;;;;;;;;;;;;
2020/05/15 01:31:59;;;;;;;14.6;13.2;;;;;;;;;;;;;
2020/05/15 01:34:25;;;;;;;14.7;13.4;;;;;;;;;;;;;
2020/05/15 01:36:55;;;;;;;14.3;12.9;;;;;;;;;;;;;
2020/05/15 01:39:21;;;;;;;14.9;13.5;;;;;;;;;;;;;
2020/05/15 01:41:51;;;;;;;15.3;13.7;;;;;;;;;;;;;
2020/05/15 01:44:17;;;;;;;15.3;13.7;;;;;;;;;;;;;
2020/05/15 01:46:42;;;;;;;15.5;14;;;;;;;;;;;;;
2020/05/15 01:49:10;;;;;;;15.8;14.3;;;;;;;;;;;;;
2020/05/15 01:51:35;;;;;;;15.6;14.2;;;;;;;;;;;;;
2020/05/15 01:54:00;;;;;;;15.5;14.1;;;;;;;;;;;;;
2020/05/15 01:56:32;;;;;;;16;14.5;;;;;;;;;;;;;
2020/05/15 01:58:57;;;;;;;15.4;14;;;;;;;;;;;;;
2020/05/15 02:01:26;;;;;;;15.8;14.4;;;;;;;;;;;;;
2020/05/15 02:03:51;;;;;;;15.9;14.5;;;;;;;;;;;;;
2020/05/15 02:06:16;;;;;;;16.1;14.7;;;;;;;;;;;;;
2020/05/15 02:08:47;;;;;;;16.2;14.7;;;;;;;;;;;;;
2020/05/15 02:11:23;;;;;;;16;14.5;;;;;;;;;;;;;
2020/05/15 02:13:41;;;;;;;16.9;15.2;;;;;;;;;;;;;
2020/05/15 02:16:08;;;;;;;16.4;14.9;;;;;;;;;;;;;
2020/05/15 02:18:33;;;;;;;15.9;14.5;;;;;;;;;;;;;
2020/05/15 02:20:58;;;;;;;16.3;14.6;;;;;;;;;;;;;
2020/05/15 02:23:23;;;;;;;15.5;14.2;;;;;;;;;;;;;
2020/05/15 02:25:50;;;;;;;16.4;15;;;;;;;;;;;;;
2020/05/15 02:28:15;;;;;;;16.1;14.7;;;;;;;;;;;;;
2020/05/15 02:30:41;;;;;;;15.3;13.9;;;;;;;;;;;;;
2020/05/15 02:33:10;;;;;;;16.1;14.6;;;;;;;;;;;;;
2020/05/15 02:35:44;;;;;;;17.3;15.5;;;;;;;;;;;;;
2020/05/15 02:38:12;;;;;;;16.2;14.7;;;;;;;;;;;;;
2020/05/15 02:40:39;;;;;;;15.8;14.2;;;;;;;;;;;;;
2020/05/15 02:43:07;;;;;;;15.3;14;;;;;;;;;;;;;
2020/05/15 02:45:33;;;;;;;15.6;14.1;;;;;;;;;;;;;
2020/05/15 02:47:59;;;;;;;16.2;14.8;;;;;;;;;;;;;
2020/05/15 02:50:24;;;;;;;15.5;14.2;;;;;;;;;;;;;
2020/05/15 02:52:49;;;;;;;16.2;14.8;;;;;;;;;;;;;
2020/05/15 02:55:14;;;;;;;16.3;14.8;;;;;;;;;;;;;
2020/05/15 02:57:43;;;;;;;16.7;15.1;;;;;;;;;;;;;
2020/05/15 03:00:10;;;;;;;16.4;14.9;;;;;;;;;;;;;
2020/05/15 03:02:35;;;;;;;17.1;15.5;;;;;;;;;;;;;
2020/05/15 03:05:00;;;;;;;15.5;14.1;;;;;;;;;;;;;
2020/05/15 03:07:26;;;;;;;16.2;14.7;;;;;;;;;;;;;
2020/05/15 03:09:51;;;;;;;16.1;14.5;;;;;;;;;;;;;
2020/05/15 03:12:26;;;;;;;16.1;14.7;;;;;;;;;;;;;
2020/05/15 03:14:55;;;;;;;14.8;13.5;;;;;;;;;;;;;
2020/05/15 03:17:22;;;;;;;14.4;13.1;;;;;;;;;;;;;
2020/05/15 03:19:48;;;;;;;13.3;12.1;;;;;;;;;;;;;
2020/05/15 03:22:14;;;;;;;13;11.9;;;;;;;;;;;;;
2020/05/15 03:24:38;;;;;;;13.7;12.5;;;;;;;;;;;;;
2020/05/15 03:27:03;;;;;;;13.6;12.4;;;;;;;;;;;;;
2020/05/15 03:29:36;;;;;;;13.2;11.9;;;;;;;;;;;;;
2020/05/15 03:32:05;;;;;;;12.7;11.6;;;;;;;;;;;;;
2020/05/15 03:34:27;;;;;;;12.8;11.7;;;;;;;;;;;;;
2020/05/15 03:36:58;;;;;;;13;11.8;;;;;;;;;;;;;
2020/05/15 03:39:24;;;;;;;12.6;11.4;;;;;;;;;;;;;
2020/05/15 03:41:54;;;;;;;12.4;11.3;;;;;;;;;;;;;
2020/05/15 03:44:21;;;;;;;12.1;11;;;;;;;;;;;;;
2020/05/15 03:46:46;;;;;;;12.1;10.9;;;;;;;;;;;;;
2020/05/15 03:49:11;;;;;;;12.1;10.9;;;;;;;;;;;;;
2020/05/15 03:51:36;;;;;;;12.2;11.1;;;;;;;;;;;;;
2020/05/15 03:54:06;;;;;;;11.6;10.6;;;;;;;;;;;;;
2020/05/15 03:56:31;;;;;;;10.6;9.6;;;;;;;;;;;;;
2020/05/15 03:58:57;;;;;;;11.1;10.1;;;;;;;;;;;;;
2020/05/15 04:02:32;;;;;;;10.2;9.3;;;;;;;9.54;89.22852;930.7063;;;;
2020/05/15 04:05:14;;;;;;;10.8;9.8;;;;;;;9.52;89.34961;930.7142;;;;
2020/05/15 04:07:43;;;;;;;10.6;9.6;;;;;;;9.57;89.22266;930.7922;;;;
2020/05/15 04:10:09;;;;;;;10.4;9.5;;;;;;;9.58;89.04395;930.6848;;;;
2020/05/15 04:12:34;;;;;;;10.9;9.9;;;;;;;9.52;89.0293;930.7809;;;;
2020/05/15 04:15:06;;;;;;;11.9;10.4;;;;;;;9.5;89.40137;930.8937;;;;
2020/05/15 04:17:31;;;;;;;13.3;11.4;;;;;;;9.56;89.39355;930.9264;;;;
2020/05/15 04:19:56;;;;;;;12.3;11.1;;;;;;;9.52;89.42969;930.9146;;;;
2020/05/15 04:22:21;;;;;;;12.5;11;;;;;;;9.54;89.47852;930.9272;;;;
2020/05/15 04:24:52;;;;;;;11.5;10.5;;;;;;;9.56;89.31152;930.9384;;;;
2020/05/15 04:27:17;;;;;;;11.4;10.4;;;;;;;9.6;89.05957;930.8533;;;;
2020/05/15 04:29:56;;;;;;;10.8;9.9;;;;;;;9.63;89.05371;930.8839;;;;
2020/05/15 04:32:21;;;;;;;10.7;9.7;;;;;;;9.65;88.84082;930.8926;;;;
2020/05/15 04:34:46;;;;;;;10.9;9.9;;;;;;;9.62;89.09473;930.9102;;;;
2020/05/15 04:37:13;;;;;;;11.9;10.8;;;;;;;9.69;89.03223;930.9031;;;;
2020/05/15 04:39:38;;;;;;;10.7;9.6;;;;;;;9.7;88.71484;930.9523;;;;
2020/05/15 04:42:18;;;;;;;11.1;10.1;;;;;;;9.72;88.65039;931.0556;;;;
2020/05/15 04:44:51;;;;;;;12;10.8;;;;;;;9.67;88.87891;931.0754;;;;
2020/05/15 04:47:19;;;;;;;11.6;10.6;;;;;;;9.66;88.94531;930.9968;;;;
2020/05/15 04:49:44;;;;;;;11.8;10.8;;;;;;;9.68;88.64258;931.0969;;;;
2020/05/15 04:52:10;;;;;;;12;11;;;;;;;9.64;88.86133;931.1494;;;;
2020/05/15 04:54:37;;;;;;;11.8;10.8;;;;;;;9.65;89.06836;931.178;;;;
2020/05/15 04:57:13;;;;;;;11.4;10.4;;;;;;;9.65;88.89746;931.1931;;;;
2020/05/15 04:59:58;;;;;;;11.9;10.9;;;;;;;9.59;89.01172;931.2101;;;;
2020/05/15 05:02:23;;;;;;;13.4;12.2;;;;;;;9.6;88.90918;931.2683;;;;
2020/05/15 05:04:50;;;;;;;13.7;12.4;;;;;;;9.64;89.38574;931.3187;;;;
2020/05/15 05:07:15;;;;;;;14;12.7;;;;;;;9.59;89.46777;931.3239;;;;
2020/05/15 05:09:45;;;;;;;11.6;10.6;;;;;;;9.68;89.29102;931.3474;;;;
2020/05/15 05:12:35;;;;;;;12.1;11;;;;;;;9.67;89.18848;931.2925;;;;
2020/05/15 05:15:01;;;;;;;11.4;10.4;;;;;;;9.67;89.26563;931.3267;;;;
2020/05/15 05:17:26;;;;;;;11;9.9;;;;;;;9.67;88.82129;931.3728;;;;
2020/05/15 05:19:55;;;;;;;12;10.4;;;;;;;9.68;88.9502;931.4109;;;;
2020/05/15 05:22:39;;;;;;;12.1;10.4;;;;;;;9.7;89.05469;931.4182;;;;
2020/05/15 05:25:05;;;;;;;10.3;9.4;;;;;;;9.69;88.82715;931.361;;;;
2020/05/15 05:27:31;;;;;;;9.6;8.8;;;;;;;9.64;88.61035;931.4609;;;;
2020/05/15 05:30:05;;;;;;;9.8;8.8;;;;;;;9.68;88.4834;931.45;;;;
2020/05/15 05:32:30;;;;;;;10.1;9.1;;;;;;;9.69;88.48535;931.5659;;;;
2020/05/15 05:34:56;;;;;;;10;9.1;;;;;;;9.76;88.3291;931.5789;;;;
2020/05/15 05:37:22;;;;;;;8.4;7.7;;;;;;;9.82;87.80469;931.6094;;;;
2020/05/15 05:39:57;;;;;;;10.1;8.3;;;;;;;9.76;88.1582;931.6361;;;;
2020/05/15 05:42:40;;;;;;;8.6;7.8;;;;;;;9.63;88.44922;931.6128;;;;
2020/05/15 05:45:11;;;;;;;8.5;7.6;;;;;;;9.71;88.39746;931.6336;;;;
2020/05/15 05:47:38;;;;;;;6.9;6.3;;;;;;;9.7;87.94922;931.7035;;;;
2020/05/15 05:50:04;;;;;;;7.1;6.5;;;;;;;9.7;87.90625;931.7274;;;;
2020/05/15 05:52:33;;;;;;;6.5;6;;;;;;;9.67;87.70508;931.7742;;;;
2020/05/15 05:55:00;;;;;;;5.8;5.3;;;;;;;9.68;87.90234;931.8601;;;;
2020/05/15 05:57:32;;;;;;;6.6;5.9;;;;;;;9.79;87.57129;931.8881;;;;
2020/05/15 05:59:57;;;;;;;6.5;6;;;;;;;9.74;87.85645;931.9095;;;;
2020/05/15 06:02:27;;;;;;;6.7;6.1;;;;;;;9.75;87.5293;931.9811;;;;
2020/05/15 06:04:55;;;;;;;6.5;5.9;;;;;;;9.79;87.28613;931.9358;;;;
2020/05/15 06:09:52;;;;;;;6.7;6.1;;;;;;;9.91;86.99023;932.0229;;;;
2020/05/15 06:12:26;;;;;;;6.7;6.1;;;;;;;9.88;86.76855;932.019;;;;
2020/05/15 06:14:52;;;;;;;7.1;6.5;;;;;;;9.86;87.07031;932.0619;;;;
2020/05/15 06:17:19;;;;;;;6.8;6.2;;;;;;;9.95;86.76953;932.1216;;;;
2020/05/15 06:19:46;;;;;;;6.9;6.3;;;;;;;9.96;86.625;932.1456;;;;
2020/05/15 06:22:11;;;;;;;7.2;6.5;;;;;;;9.91;86.96777;932.155;;;;
2020/05/15 06:24:36;;;;;;;7.3;6.7;;;;;;;9.93;86.94824;932.1487;;;;
2020/05/15 06:27:10;;;;;;;7.6;7;;;;;;;9.95;86.81543;932.1454;;;;
2020/05/15 06:32:01;;;;;;;6.8;6.2;;;;;;;9.93;86.59473;932.2767;;;;
2020/05/15 06:34:31;;;;;;;7.3;6.7;;;;;;;9.93;86.73145;932.2839;;;;
2020/05/15 06:39:31;;;;;;;7.9;7.2;;;;;;;9.83;86.80273;932.3203;;;;
2020/05/15 06:42:06;;;;;;;7.6;6.9;;;;;;;9.78;86.76953;932.3588;;;;
2020/05/15 06:44:39;;;;;;;8.1;7.4;;;;;;;9.81;87.1875;932.4244;;;;
2020/05/15 06:47:06;;;;;;;7.5;6.8;;;;;;;9.85;87.17188;932.4149;;;;
2020/05/15 06:49:31;;;;;;;7.5;6.8;;;;;;;9.83;87.00879;932.4952;;;;
2020/05/15 06:52:18;;;;;;;6.9;6.3;;;;;;;9.79;87.06934;932.5098;;;;
2020/05/15 06:54:43;;;;;;;7.4;6.7;;;;;;;9.85;87.16016;932.5795;;;;
2020/05/15 06:57:11;;;;;;;6.8;6.2;;;;;;;9.89;86.80469;932.5359;;;;
2020/05/15 06:59:38;;;;;;;6.3;5.8;;;;;;;9.96;86.40625;932.5773;;;;
2020/05/15 07:02:03;;;;;;;6.3;5.7;;;;;;;10.05;86.27637;932.6454;;;;
2020/05/15 07:04:43;;;;;;;5.9;5.4;;;;;;;10.08;85.72461;932.6805;;;;
2020/05/15 07:07:07;;;;;;;5.8;5.2;;;;;;;10.14;85.9082;932.625;;;;
2020/05/15 07:12:39;;;;;;;5.2;4.7;;;;;;;10.17;85.43457;932.7562;;;;
2020/05/15 07:17:20;;;;;;;4.6;4.2;;;;;;;10.23;84.7832;932.8047;;;;
2020/05/15 07:20:03;;;;;;;4.5;4.1;;;;;;;10.18;84.85449;932.8208;;;;
2020/05/15 07:22:22;;;;;;;4.8;4.4;;;;;;;10.18;84.93262;932.9026;;;;
2020/05/15 07:25:24;;;;;;;4.5;4.1;;;;;;;10.2;85.04102;932.9353;;;;
2020/05/15 07:32:35;;;;;;;4.7;4.3;;;;;;;10.2;85.25781;933.0627;;;;
2020/05/15 07:34:50;;;;;;;4.3;3.9;;;;;;;10.18;85.00098;933.0848;;;;
2020/05/15 07:37:14;;;;;;;4.5;4.1;;;;;;;10.23;84.54395;933.1079;;;;
2020/05/15 07:39:44;;;;;;;4.9;4.5;;;;;;;10.18;84.76172;933.1334;;;;
2020/05/15 07:42:23;;;;;;;5.8;5.1;;;;;;;10.12;85.36719;933.2024;;;;
2020/05/15 07:44:48;;;;;;;6.2;5.6;;;;;;;10.16;85.23926;933.2718;;;;
2020/05/15 07:47:25;;;;;;;6.1;5.5;;;;;;;10.18;84.80859;933.3061;;;;
2020/05/15 07:49:59;;;;;;;5.7;5.1;;;;;;;10.08;85.01758;933.3225;;;;
2020/05/15 07:52:07;;;;;;;5.6;5;;;;;;;10.11;84.94336;933.3878;;;;
2020/05/15 07:54:51;;;;;;;8.9;5.7;;;;;;;10.21;85.05371;933.4751;;;;
2020/05/15 07:57:19;;;;;;;6.3;5.1;;;;;;;10.28;84.83984;933.4924;;;;
2020/05/15 07:59:44;;;;;;;6;4.9;;;;;;;10.23;84.81836;933.5852;;;;
2020/05/15 08:02:16;;;;;;;5.3;4.8;;;;;;;10.13;85.48438;933.5931;;;;
2020/05/15 08:05:01;;;;;;;5.7;4.7;;;;;;;10.32;84.77832;933.579;;;;
2020/05/15 08:07:28;;;;;;;3.8;3.5;;;;;;;10.36;83.80371;933.7623;;;;
2020/05/15 08:10:04;;;;;;;4.5;4.1;;;;;;;10.39;83.70703;933.8084;;;;
2020/05/15 08:12:43;;;;;;;4.7;3.8;;;;;;;10.4;84.44238;933.7974;;;;
2020/05/15 08:15:11;;;;;;;3.5;3.2;;;;;;;10.31;84.14941;933.8376;;;;
2020/05/15 08:17:42;;;;;;;3.3;2.5;;;;;;;;;;;;;
2020/05/15 08:20:19;;;;;;;3.5;3.2;;;;;;;;;;;;;
2020/05/15 08:22:35;;;;;;;4;3.4;;;;;;;;;;;;;
2020/05/15 08:25:03;;;;;;;3.2;2.8;;;;;;;;;;;;;
2020/05/15 08:27:29;;;;;;;3.2;2.8;;;;;;;;;;;;;
2020/05/15 08:29:55;;;;;;;3.5;2.9;;;;;;;;;;;;;
2020/05/15 08:32:27;;;;;;;3.7;2.9;;;;;;;;;;;;;
2020/05/15 08:34:46;;;;;;;3.4;2.8;;;;;;;;;;;;;
2020/05/15 08:37:14;;;;;;;3.6;3.1;;;;;;;;;;;;;
2020/05/15 08:39:39;;;;;;;3.9;3.3;;;;;;;;;;;;;
2020/05/15 08:42:05;;;;;;;5.4;3.2;;;;;;;;;;;;;
2020/05/15 08:44:31;;;;;;;3.9;3.2;;;;;;;;;;;;;
2020/05/15 08:46:56;;;;;;;3.8;3.5;;;;;;;;;;;;;
2020/05/15 08:49:22;;;;;;;3.8;3.5;;;;;;;;;;;;;
2020/05/15 08:51:47;;;;;;;10;3.5;;;;;;;;;;;;;
2020/05/15 08:54:15;;;;;;;3.5;3.2;;;;;;;;;;;;;
2020/05/15 08:56:39;;;;;;;5.5;3.4;;;;;;;;;;;;;
2020/05/15 08:59:12;;;;;;;4;3;;;;;;;;;;;;;
2020/05/15 09:01:41;;;;;;;3.5;3;;;;;;;;;;;;;
2020/05/15 09:04:07;;;;;;;3.3;3;;;;;;;;;;;;;
2020/05/15 09:06:39;;;;;;;3.6;2.8;;;;;;;;;;;;;
2020/05/15 09:09:09;;;;;;;5.1;2.9;;;;;;;;;;;;;
2020/05/15 09:11:36;;;;;;;3.4;2.8;;;;;;;;;;;;;
2020/05/15 09:14:02;;;;;;;3.4;2.8;;;;;;;;;;;;;
2020/05/15 09:16:27;;;;;;;5.1;2.4;;;;;;;;;;;;;
2020/05/15 09:19:00;;;;;;;3.4;2.7;;;;;;;;;;;;;
2020/05/15 09:21:25;;;;;;;3;2.7;;;;;;;;;;;;;
2020/05/15 09:23:51;;;;;;;4.3;3;;;;;;;;;;;;;
2020/05/15 09:26:25;;;;;;;3.3;3;;;;;;;;;;;;;
2020/05/15 09:28:50;;;;;;;4.4;3;;;;;;;;;;;;;
2020/05/15 09:31:35;;;;;;;4.9;2.7;;;;;;;;;;;;;
2020/05/15 09:34:40;;;;;;;3.2;2.7;;;;;;;;;;;;;
2020/05/15 09:38:38;;;;;;;2.8;2.6;;;;;;;;;;;;;
2020/05/15 09:41:03;;;;;;;4;2.7;;;;;;;;;;;;;
2020/05/15 09:43:35;;;;;;;2.3;2.1;;;;;;;;;;;;;
2020/05/15 09:46:00;;;;;;;2.9;2.3;;;;;;;;;;;;;
2020/05/15 09:48:30;;;;;;;2.5;2.3;;;;;;;;;;;;;
2020/05/15 09:50:57;;;;;;;3.9;1.9;;;;;;;;;;;;;
2020/05/15 09:53:22;;;;;;;2.3;2.1;;;;;;;;;;;;;
2020/05/15 09:55:47;;;;;;;2.3;1.9;;;;;;;;;;;;;
2020/05/15 09:58:26;;;;;;;2.5;1.4;;;;;;;;;;;;;
2020/05/15 10:03:08;;;;;;;1.9;1.7;;;;;;;;;;;;;
2020/05/15 10:05:34;;;;;;;1.7;1.4;;;;;;;;;;;;;
2020/05/15 10:07:59;;;;;;;3;1.6;;;;;;;;;;;;;
2020/05/15 10:10:24;;;;;;;1.6;1.5;;;;;;;;;;;;;
2020/05/15 10:12:57;;;;;;;1.8;1.3;;;;;;;;;;;;;
2020/05/15 10:15:22;;;;;;;1.6;1.4;;;;;;;;;;;;;
2020/05/15 10:17:47;;;;;;;2.2;1.7;;;;;;;;;;;;;
2020/05/15 10:20:16;;;;;;;2.2;1.7;;;;;;;;;;;;;
2020/05/15 10:22:41;;;;;;;1.3;1.2;;;;;;;;;;;;;
2020/05/15 10:25:06;;;;;;;1.2;1.1;;;;;;;;;;;;;
2020/05/15 10:27:32;;;;;;;1.8;0.8;;;;;;;;;;;;;
2020/05/15 10:30:00;;;;;;;1.7;0.8;;;;;;;;;;;;;
2020/05/15 10:32:25;;;;;;;0.9;0.7;;;;;;;;;;;;;
2020/05/15 10:34:54;;;;;;;0.8;0.8;;;;;;;;;;;;;
2020/05/15 10:37:25;;;;;;;1.4;0.6;;;;;;;;;;;;;
2020/05/15 10:39:55;;;;;;;1.4;1;;;;;;;;;;;;;
2020/05/15 10:42:26;;;;;;;1.1;1;;;;;;;;;;;;;
2020/05/15 10:44:44;;;;;;;1;0.8;;;;;;;;;;;;;
2020/05/15 10:47:08;;;;;;;1.3;0.8;;;;;;;;;;;;;
2020/05/15 10:49:33;;;;;;;2.6;1;;;;;;;;;;;;;
2020/05/15 10:51:59;;;;;;;1.2;1;;;;;;;;;;;;;
2020/05/15 10:54:24;;;;;;;1.4;0.9;;;;;;;;;;;;;
2020/05/15 10:56:49;;;;;;;0.9;0.8;;;;;;;;;;;;;
2020/05/15 10:59:22;;;;;;;2;1;;;;;;;;;;;;;
2020/05/15 11:01:56;;;;;;;1.6;1;;;;;;;;;;;;;
2020/05/15 11:04:21;;;;;;;2;0.9;;;;;;;;;;;;;
2020/05/15 11:06:48;;;;;;;1.3;1;;;;;;;;;;;;;
2020/05/15 11:09:27;;;;;;;1.4;1;;;;;;;;;;;;;
2020/05/15 11:11:47;;;;;;;1.2;0.9;;;;;;;;;;;;;
2020/05/15 11:14:13;;;;;;;1.3;1.2;;;;;;;;;;;;;
2020/05/15 11:16:41;;;;;;;1.2;1.1;;;;;;;;;;;;;
2020/05/15 11:19:04;;;;;;;1.2;1.1;;;;;;;;;;;;;
2020/05/15 11:21:29;;;;;;;1.5;1.2;;;;;;;;;;;;;
2020/05/15 11:23:57;;;;;;;1.9;1.4;;;;;;;;;;;;;
2020/05/15 11:26:22;;;;;;;2.3;1.5;;;;;;;;;;;;;
2020/05/15 11:28:47;;;;;;;3;1.9;;;;;;;;;;;;;
2020/05/15 11:31:12;;;;;;;3.5;2.1;;;;;;;;;;;;;
2020/05/15 11:33:43;;;;;;;3;2;;;;;;;;;;;;;
2020/05/15 11:36:09;;;;;;;2.9;2.3;;;;;;;;;;;;;
2020/05/15 11:38:35;;;;;;;2.9;2.3;;;;;;;;;;;;;
2020/05/15 11:41:02;;;;;;;2.1;1.9;;;;;;;;;;;;;
2020/05/15 11:43:27;;;;;;;1.3;1.2;;;;;;;;;;;;;
2020/05/15 11:45:54;;;;;;;2.1;1.7;;;;;;;;;;;;;
2020/05/15 11:48:45;;;;;;;1.9;1.7;;;;;;;;;;;;;
2020/05/15 11:50:51;;;;;;;2.8;1.7;;;;;;;;;;;;;
2020/05/15 11:53:13;;;;;;;1.6;1.4;;;;;;;;;;;;;
2020/05/15 11:55:39;;;;;;;1.9;1.7;;;;;;;;;;;;;
2020/05/15 11:58:05;;;;;;;2.6;1.8;;;;;;;;;;;;;
2020/05/15 12:00:31;;;;;;;2.1;1.8;;;;;;;;;;;;;
2020/05/15 12:02:58;;;;;;;1.7;1.6;;;;;;;;;;;;;
2020/05/15 12:05:23;;;;;;;1.8;1.7;;;;;;;;;;;;;
2020/05/15 12:07:50;;;;;;;1.7;1.3;;;;;;;;;;;;;
2020/05/15 12:10:19;;;;;;;1.7;1.6;;;;;;;;;;;;;
2020/05/15 12:12:45;;;;;;;3.4;3.1;;;;;;;;;;;;;
2020/05/15 12:15:15;;;;;;;2.4;2.2;;;;;;;;;;;;;
2020/05/15 12:18:10;;;;;;;3;2.7;;;;;;;;;;;;;
2020/05/15 12:20:34;;;;;;;3.8;1.9;;;;;;;;;;;;;
2020/05/15 12:22:47;;;;;;;2.1;1.6;;;;;;;;;;;;;
2020/05/15 12:25:13;;;;;;;1.7;1.4;;;;;;;;;;;;;
2020/05/15 12:27:30;;;;;;;1.7;1.6;;;;;;;;;;;;;
2020/05/15 12:30:07;;;;;;;1.6;1.4;;;;;;;;;;;;;
2020/05/15 12:32:25;;;;;;;2.1;1.5;;;;;;;;;;;;;
2020/05/15 12:34:55;;;;;;;1.6;1.4;;;;;;;;;;;;;
2020/05/15 12:37:20;;;;;;;1.6;1.5;;;;;;;;;;;;;
2020/05/15 12:39:46;;;;;;;1.8;1.5;;;;;;;;;;;;;
2020/05/15 12:42:11;;;;;;;3.2;1.7;;;;;;;;;;;;;
2020/05/15 12:44:43;;;;;;;5;1.8;;;;;;;;;;;;;
2020/05/15 12:47:08;;;;;;;2.2;1.5;;;;;;;;;;;;;
2020/05/15 12:49:33;;;;;;;2.4;1.7;;;;;;;;;;;;;
2020/05/15 12:52:00;;;;;;;2.3;1.9;;;;;;;;;;;;;
2020/05/15 12:54:25;;;;;;;2.7;1.3;;;;;;;;;;;;;
2020/05/15 12:56:50;;;;;;;2;1.5;;;;;;;;;;;;;
2020/05/15 12:59:18;;;;;;;2.4;2.2;;;;;;;;;;;;;
2020/05/15 13:01:50;;;;;;;2;1.7;;;;;;;;;;;;;
2020/05/15 13:04:22;;;;;;;1.7;1.6;;;;;;;;;;;;;
2020/05/15 13:06:47;;;;;;;2.9;1.6;;;;;;;;;;;;;
2020/05/15 13:09:21;;;;;;;3.1;1.7;;;;;;;;;;;;;
2020/05/15 13:11:42;;;;;;;3;1.5;;;;;;;;;;;;;
2020/05/15 13:14:03;;;;;;;7.4;2;;;;;;;;;;;;;
2020/05/15 13:16:39;;;;;;;1.7;1.5;;;;;;;;;;;;;
2020/05/15 13:19:11;;;;;;;1.3;1.2;;;;;;;;;;;;;
2020/05/15 13:21:37;;;;;;;1.6;1.5;;;;;;;;;;;;;
2020/05/15 13:24:02;;;;;;;1.5;1.3;;;;;;;;;;;;;
2020/05/15 13:26:27;;;;;;;1.8;1.7;;;;;;;;;;;;;
2020/05/15 13:28:52;;;;;;;2.6;1.4;;;;;;;;;;;;;
2020/05/15 13:31:17;;;;;;;1.2;1.1;;;;;;;;;;;;;
2020/05/15 13:33:43;;;;;;;2.1;1.2;;;;;;;;;;;;;
2020/05/15 13:36:16;;;;;;;1.8;1.3;;;;;;;;;;;;;
2020/05/15 13:39:07;;;;;;;1.3;1.2;;;;;;;;;;;;;
2020/05/15 13:41:14;;;;;;;4.7;1.2;;;;;;;;;;;;;
2020/05/15 13:43:35;;;;;;;1.5;1;;;;;;;;;;;;;
2020/05/15 13:46:04;;;;;;;2.9;1.2;;;;;;;;;;;;;
2020/05/15 13:48:29;;;;;;;2.4;1.2;;;;;;;;;;;;;
2020/05/15 13:50:56;;;;;;;1.6;1.3;;;;;;;;;;;;;
2020/05/15 13:53:21;;;;;;;3;1.2;;;;;;;;;;;;;
2020/05/15 13:55:46;;;;;;;1.5;1.4;;;;;;;;;;;;;
2020/05/15 13:58:11;;;;;;;1.6;1.5;;;;;;;;;;;;;
2020/05/15 14:00:36;;;;;;;2.4;1.6;;;;;;;;;;;;;
2020/05/15 14:03:01;;;;;;;1.7;1.6;;;;;;;;;;;;;
2020/05/15 14:05:36;;;;;;;2;1.5;;;;;;;;;;;;;
2020/05/15 14:08:03;;;;;;;3;1.5;;;;;;;;;;;;;
2020/05/15 14:10:35;;;;;;;2.2;1.6;;;;;;;;;;;;;
2020/05/15 14:12:58;;;;;;;2.6;1.4;;;;;;;;;;;;;
2020/05/15 14:15:23;;;;;;;1.4;1.3;;;;;;;;;;;;;
2020/05/15 14:17:48;;;;;;;4.7;1.7;;;;;;;;;;;;;
2020/05/15 14:20:15;;;;;;;2.2;1.8;;;;;;;;;;;;;
2020/05/15 14:22:45;;;;;;;2.2;1.9;;;;;;;;;;;;;
2020/05/15 14:25:13;;;;;;;4.3;1.8;;;;;;;;;;;;;
2020/05/15 14:27:38;;;;;;;2.1;1.9;;;;;;;;;;;;;
2020/05/15 14:30:05;;;;;;;2.9;1.9;;;;;;;;;;;;;
2020/05/15 14:32:32;;;;;;;3.3;1.9;;;;;;;;;;;;;
2020/05/15 14:34:59;;;;;;;2.3;1.6;;;;;;;;;;;;;
2020/05/15 14:37:24;;;;;;;2.2;1.8;;;;;;;;;;;;;
2020/05/15 14:39:55;;;;;;;1.9;1.8;;;;;;;;;;;;;
2020/05/15 14:42:15;;;;;;;2.2;1.8;;;;;;;;;;;;;
2020/05/15 14:44:40;;;;;;;2;1.8;;;;;;;;;;;;;
2020/05/15 14:47:13;;;;;;;1.7;1.5;;;;;;;;;;;;;
2020/05/15 14:49:38;;;;;;;2;1.7;;;;;;;;;;;;;
2020/05/15 14:52:03;;;;;;;2;1.8;;;;;;;;;;;;;
2020/05/15 14:54:29;;;;;;;2.4;1.8;;;;;;;;;;;;;
2020/05/15 14:56:54;;;;;;;2.2;2;;;;;;;;;;;;;
2020/05/15 14:59:28;;;;;;;2.3;1.8;;;;;;;;;;;;;
2020/05/15 15:02:01;;;;;;;2.8;1.9;;;;;;;;;;;;;
2020/05/15 15:04:26;;;;;;;2.4;2.2;;;;;;;;;;;;;
2020/05/15 15:06:51;;;;;;;3.6;2.3;;;;;;;;;;;;;
2020/05/15 15:09:18;;;;;;;2.8;2.1;;;;;;;;;;;;;
2020/05/15 15:11:43;;;;;;;2.8;2.3;;;;;;;;;;;;;
2020/05/15 15:14:10;;;;;;;2.3;2.1;;;;;;;;;;;;;
2020/05/15 15:16:35;;;;;;;2.4;2.2;;;;;;;;;;;;;
2020/05/15 15:19:10;;;;;;;2.6;2.2;;;;;;;;;;;;;
2020/05/15 15:21:36;;;;;;;2.2;2;;;;;;;;;;;;;
2020/05/15 15:24:06;;;;;;;3.1;2.1;;;;;;;;;;;;;
2020/05/15 15:26:40;;;;;;;2.4;2;;;;;;;;;;;;;
2020/05/15 15:29:05;;;;;;;2.1;1.9;;;;;;;;;;;;;
2020/05/15 15:31:30;;;;;;;2.3;1.9;;;;;;;;;;;;;
2020/05/15 15:34:04;;;;;;;2.5;2.1;;;;;;;;;;;;;
2020/05/15 15:36:36;;;;;;;1.7;1.6;;;;;;;;;;;;;
2020/05/15 15:39:05;;;;;;;1.8;1.7;;;;;;;;;;;;;
2020/05/15 15:41:30;;;;;;;3.1;1.9;;;;;;;;;;;;;
2020/05/15 15:44:00;;;;;;;2.3;2.1;;;;;;;;;;;;;
2020/05/15 15:46:25;;;;;;;2.3;2.1;;;;;;;;;;;;;
2020/05/15 15:48:54;;;;;;;2.5;2.1;;;;;;;;;;;;;
2020/05/15 15:51:26;;;;;;;2.4;2.2;;;;;;;;;;;;;
2020/05/15 15:53:55;;;;;;;2.8;2.2;;;;;;;;;;;;;
2020/05/15 15:56:13;;;;;;;2.9;2.6;;;;;;;;;;;;;
2020/05/15 15:58:36;;;;;;;4.1;2.5;;;;;;;;;;;;;
2020/05/15 16:01:05;;;;;;;3.9;2.7;;;;;;;;;;;;;
2020/05/15 16:03:30;;;;;;;3.1;2.5;;;;;;;;;;;;;
2020/05/15 16:05:55;;;;;;;2.4;2.2;;;;;;;;;;;;;
2020/05/15 16:08:25;;;;;;;2.6;2.4;;;;;;;;;;;;;
2020/05/15 16:10:51;;;;;;;3.1;2.3;;;;;;;;;;;;;
2020/05/15 16:13:17;;;;;;;2.5;2.3;;;;;;;;;;;;;
2020/05/15 16:15:42;;;;;;;3.3;2.5;;;;;;;;;;;;;
2020/05/15 16:18:07;;;;;;;2.9;2.4;;;;;;;;;;;;;
2020/05/15 16:20:33;;;;;;;2.5;2.2;;;;;;;;;;;;;
2020/05/15 16:23:05;;;;;;;4;2.4;;;;;;;;;;;;;
2020/05/15 16:25:35;;;;;;;4.4;2.4;;;;;;;;;;;;;
2020/05/15 16:28:00;;;;;;;3.7;2.7;;;;;;;;;;;;;
2020/05/15 16:30:25;;;;;;;4.2;2.5;;;;;;;;;;;;;
2020/05/15 16:32:50;;;;;;;3.3;2.7;;;;;;;;;;;;;
2020/05/15 16:35:15;;;;;;;3.4;2.7;;;;;;;;;;;;;
2020/05/15 16:37:47;;;;;;;3.7;2.4;;;;;;;;;;;;;
2020/05/15 16:40:13;;;;;;;3.7;3.1;;;;;;;;;;;;;
2020/05/15 16:42:40;;;;;;;3.1;2.8;;;;;;;;;;;;;
2020/05/15 16:45:05;;;;;;;6.1;3.2;;;;;;;;;;;;;
2020/05/15 16:47:33;;;;;;;3.3;3;;;;;;;;;;;;;
2020/05/15 16:49:58;;;;;;;4.4;3.2;;;;;;;;;;;;;
2020/05/15 16:52:23;;;;;;;3.7;3.4;;;;;;;;;;;;;
2020/05/15 16:54:48;;;;;;;4;3.6;;;;;;;;;;;;;
2020/05/15 16:57:18;;;;;;;6;4.3;;;;;;;;;;;;;
2020/05/15 16:59:43;;;;;;;4.3;3.9;;;;;;;;;;;;;
2020/05/15 17:02:08;;;;;;;3.5;3.2;;;;;;;;;;;;;
2020/05/15 17:04:33;;;;;;;3.9;3.5;;;;;;;;;;;;;
2020/05/15 17:07:02;;;;;;;4;3.5;;;;;;;;;;;;;
2020/05/15 17:09:27;;;;;;;3.6;3.3;;;;;;;;;;;;;
2020/05/15 17:11:55;;;;;;;3.5;3.2;;;;;;;;;;;;;
2020/05/15 17:14:20;;;;;;;3.1;2.8;;;;;;;;;;;;;
2020/05/15 17:16:45;;;;;;;3.7;3.3;;;;;;;;;;;;;
2020/05/15 17:19:14;;;;;;;4.2;3.7;;;;;;;;;;;;;
2020/05/15 17:21:39;;;;;;;3.4;3.1;;;;;;;;;;;;;
2020/05/15 17:24:04;;;;;;;3.3;3;;;;;;;;;;;;;
2020/05/15 17:26:31;;;;;;;4.7;2.9;;;;;;;;;;;;;
2020/05/15 17:29:06;;;;;;;3.7;3.4;;;;;;;;;;;;;
2020/05/15 17:31:35;;;;;;;3.5;3.2;;;;;;;;;;;;;
2020/05/15 17:33:59;;;;;;;3.7;3.4;;;;;;;;;;;;;
2020/05/15 17:36:25;;;;;;;4;3.6;;;;;;;;;;;;;
2020/05/15 17:38:50;;;;;;;4.7;3.7;;;;;;;;;;;;;
2020/05/15 17:41:15;;;;;;;4.8;3.9;;;;;;;;;;;;;
2020/05/15 17:43:42;;;;;;;4.3;3.8;;;;;;;;;;;;;
2020/05/15 17:46:18;;;;;;;4;3.7;;;;;;;;;;;;;
2020/05/15 17:48:43;;;;;;;4.4;3.3;;;;;;;;;;;;;
2020/05/15 17:51:34;;;;;;;3.5;3.2;;;;;;;;;;;;;
2020/05/15 17:56:23;;;;;;;3.7;3.4;;;;;;;;;;;;;
2020/05/15 17:58:46;;;;;;;3.6;3.3;;;;;;;;;;;;;
2020/05/15 18:01:17;;;;;;;6.6;6;;;;;;;;;;;;;
2020/05/15 18:03:42;;;;;;;6.7;5.9;;;;;;;;;;;;;
2020/05/15 18:06:10;;;;;;;4.8;4.3;;;;;;;;;;;;;
2020/05/15 18:08:48;;;;;;;5.1;4.6;;;;;;;;;;;;;
2020/05/15 18:13:37;;;;;;;4.3;3.9;;;;;;;;;;;;;
2020/05/15 18:15:55;;;;;;;4.1;3.7;;;;;;;;;;;;;
2020/05/15 18:18:26;;;;;;;4.2;3.8;;;;;;;;;;;;;
2020/05/15 18:20:51;;;;;;;6.1;4.4;;;;;;;;;;;;;
2020/05/15 18:23:17;;;;;;;5.5;4.3;;;;;;;;;;;;;
2020/05/15 18:25:46;;;;;;;4.4;4;;;;;;;;;;;;;
2020/05/15 18:28:13;;;;;;;3.5;3.2;;;;;;;;;;;;;
2020/05/15 18:30:38;;;;;;;5.2;4.7;;;;;;;;;;;;;
2020/05/15 18:33:03;;;;;;;6.5;5.9;;;;;;;;;;;;;
2020/05/15 18:35:33;;;;;;;6.3;5.7;;;;;;;;;;;;;
2020/05/15 18:38:03;;;;;;;6.3;5.7;;;;;;;;;;;;;
2020/05/15 18:40:28;;;;;;;8.2;6.2;;;;;;;;;;;;;
2020/05/15 18:42:53;;;;;;;5.6;5.1;;;;;;;;;;;;;
2020/05/15 18:45:19;;;;;;;5.7;5.2;;;;;;;;;;;;;
2020/05/15 18:47:46;;;;;;;5;4.6;;;;;;;;;;;;;
2020/05/15 18:50:11;;;;;;;3.6;3.3;;;;;;;;;;;;;
2020/05/15 18:52:37;;;;;;;4.6;3.7;;;;;;;;;;;;;
2020/05/15 18:55:02;;;;;;;4;3.6;;;;;;;;;;;;;
2020/05/15 18:57:27;;;;;;;4;3.6;;;;;;;;;;;;;
2020/05/15 18:59:59;;;;;;;3.5;3.2;;;;;;;;;;;;;
2020/05/15 19:02:31;;;;;;;4.1;3.3;;;;;;;;;;;;;
2020/05/15 19:04:56;;;;;;;3.8;3.4;;;;;;;;;;;;;
2020/05/15 19:07:21;;;;;;;3.5;3.2;;;;;;;;;;;;;
2020/05/15 19:09:47;;;;;;;3.7;3.4;;;;;;;;;;;;;
2020/05/15 19:12:13;;;;;;;6.2;5.7;;;;;;;;;;;;;
2020/05/15 19:14:40;;;;;;;4.1;3.7;;;;;;;;;;;;;
2020/05/15 19:17:02;;;;;;;4.5;3.6;;;;;;;;;;;;;
2020/05/15 19:19:28;;;;;;;4.3;3.8;;;;;;;;;;;;;
2020/05/15 19:21:58;;;;;;;3.7;3.4;;;;;;;;;;;;;
2020/05/15 19:24:23;;;;;;;4.1;3.7;;;;;;;;;;;;;
2020/05/15 19:26:51;;;;;;;4.7;4;;;;;;;;;;;;;
2020/05/15 19:29:16;;;;;;;4.8;4.1;;;;;;;;;;;;;
2020/05/15 19:39:24;;;;;;;4.9;4.5;;;;;;;;;;;;;
2020/05/15 19:41:38;;;;;;;4.8;4.3;;;;;;;;;;;;;
2020/05/15 19:44:11;;;;;;;4.9;4.4;;;;;;;;;;;;;
2020/05/15 19:46:40;;;;;;;4.9;4.2;;;;;;;;;;;;;
2020/05/15 19:49:06;;;;;;;4.3;3.9;;;;;;;;;;;;;
2020/05/15 19:51:31;;;;;;;3.9;3.6;;;;;;;;;;;;;
2020/05/15 19:53:57;;;;;;;3.8;3.5;;;;;;;;;;;;;